Time;durP1;ratioP1;P1;durP2;ratioP2;P2;SDS_P1;SDS_P2;PMS_P1;PMS_P2;Temp;Humidity;BMP_temperature;BMP_pressure;BME280_temperature;BME280_humidity;BME280_pressure;Samples;Min_cycle;Max_cycle;Signal;HPM_P1;HPM_P2
2023/05/21 00:02:33;;;;;;;6.35;4.90;;;15.10;99.90;;;;;;10453292;28;20301;-76
2023/05/21 00:07:58;;;;;;;5.15;4.50;;;15.10;99.90;;;;;;10435361;28;20234;-77
2023/05/21 00:13:19;;;;;;;12.40;5.30;;;15.10;99.90;;;;;;10433552;28;20782;-76
2023/05/21 00:18:40;;;;;;;7.00;4.57;;;15.10;99.90;;;;;;10435455;28;20199;-77
2023/05/21 00:24:02;;;;;;;6.10;4.80;;;15.20;99.90;;;;;;10441845;28;20249;-77
2023/05/21 00:29:23;;;;;;;5.97;4.72;;;15.20;99.90;;;;;;10441631;28;20327;-77
2023/05/21 00:34:44;;;;;;;6.90;5.28;;;15.20;99.90;;;;;;10469411;28;20202;-76
2023/05/21 00:40:10;;;;;;;6.05;4.88;;;15.20;99.90;;;;;;10439992;28;20227;-76
2023/05/21 00:45:31;;;;;;;6.95;5.00;;;15.20;99.90;;;;;;10441823;28;20249;-76
2023/05/21 00:50:52;;;;;;;6.18;4.90;;;15.30;99.90;;;;;;10425474;28;20202;-76
2023/05/21 00:56:13;;;;;;;8.27;5.88;;;15.30;99.90;;;;;;10441588;28;20195;-76
2023/05/21 01:01:35;;;;;;;7.70;5.68;;;15.30;99.90;;;;;;10454894;28;20229;-76
2023/05/21 01:06:57;;;;;;;6.88;5.05;;;15.30;99.90;;;;;;10467596;28;20221;-76
2023/05/21 01:12:19;;;;;;;5.72;4.80;;;15.20;99.90;;;;;;10468232;28;20203;-76
2023/05/21 01:17:41;;;;;;;7.35;5.57;;;15.20;99.90;;;;;;10466101;28;20210;-76
2023/05/21 01:23:02;;;;;;;8.05;5.45;;;15.20;99.90;;;;;;10440394;28;20497;-76
2023/05/21 01:28:23;;;;;;;5.90;4.70;;;15.20;99.90;;;;;;10424388;28;20235;-76
2023/05/21 01:33:48;;;;;;;9.88;6.22;;;15.20;99.90;;;;;;10439717;28;20191;-76
2023/05/21 01:39:25;;;;;;;10.63;5.70;;;15.10;99.90;;;;;;10437909;28;20199;-76
2023/05/21 01:44:47;;;;;;;6.80;4.63;;;15.10;99.90;;;;;;10438456;28;20418;-76
2023/05/21 01:50:09;;;;;;;7.40;4.95;;;15.10;99.90;;;;;;10438640;28;20607;-76
2023/05/21 01:55:31;;;;;;;6.03;4.80;;;15.10;99.90;;;;;;10437545;28;20275;-76
2023/05/21 02:00:53;;;;;;;5.82;4.60;;;15.10;99.90;;;;;;10479246;28;20241;-77
2023/05/21 02:06:14;;;;;;;11.55;5.60;;;15.10;99.90;;;;;;10468271;28;20309;-76
2023/05/21 02:11:35;;;;;;;8.93;5.63;;;15.10;99.90;;;;;;10438418;28;20240;-77
2023/05/21 02:16:56;;;;;;;6.72;4.93;;;15.10;99.90;;;;;;10440475;28;20206;-78
2023/05/21 02:22:18;;;;;;;6.95;5.00;;;15.10;99.90;;;;;;10437348;28;20189;-77
2023/05/21 02:27:41;;;;;;;6.88;5.07;;;15.00;99.90;;;;;;10436024;28;20297;-76
2023/05/21 02:33:02;;;;;;;5.88;4.65;;;15.00;99.90;;;;;;10437532;28;20186;-76
2023/05/21 02:38:24;;;;;;;5.80;4.63;;;14.90;99.90;;;;;;10421654;28;20541;-73
2023/05/21 02:43:45;;;;;;;5.93;4.88;;;14.90;99.90;;;;;;10436755;28;20196;-74
2023/05/21 02:49:07;;;;;;;7.20;4.72;;;14.90;99.90;;;;;;10435007;28;20437;-77
2023/05/21 02:54:28;;;;;;;6.65;5.03;;;14.90;99.90;;;;;;10436070;28;20199;-73
2023/05/21 02:59:50;;;;;;;5.88;5.13;;;14.80;99.90;;;;;;10469127;28;20600;-73
2023/05/21 03:05:11;;;;;;;6.30;4.88;;;14.80;99.90;;;;;;10476890;28;20272;-74
2023/05/21 03:10:33;;;;;;;6.15;4.60;;;14.80;99.90;;;;;;10433896;28;20216;-75
2023/05/21 03:15:55;;;;;;;6.32;4.88;;;14.80;99.90;;;;;;10422851;28;20261;-75
2023/05/21 03:21:16;;;;;;;6.45;5.00;;;14.80;99.90;;;;;;10434740;28;20378;-75
2023/05/21 03:26:38;;;;;;;9.35;5.45;;;14.80;99.90;;;;;;10434710;28;20272;-75
2023/05/21 03:32:00;;;;;;;6.15;4.88;;;14.80;99.90;;;;;;10436453;28;20191;-75
2023/05/21 03:37:22;;;;;;;7.07;4.95;;;14.90;99.90;;;;;;10434309;28;20241;-75
2023/05/21 03:42:43;;;;;;;7.03;5.57;;;14.90;99.90;;;;;;10462358;28;20210;-75
2023/05/21 03:48:05;;;;;;;6.07;4.70;;;14.90;99.90;;;;;;10433034;28;20297;-75
2023/05/21 03:53:26;;;;;;;8.05;6.45;;;14.90;99.90;;;;;;10436577;28;20198;-75
2023/05/21 03:58:48;;;;;;;8.20;5.80;;;14.90;99.90;;;;;;10450450;28;20245;-75
2023/05/21 04:04:10;;;;;;;10.90;7.97;;;14.90;99.90;;;;;;10483827;28;20276;-76
2023/05/21 04:09:31;;;;;;;10.57;7.55;;;14.90;99.90;;;;;;10451480;28;20212;-75
2023/05/21 04:14:53;;;;;;;9.40;5.85;;;15.00;99.90;;;;;;10432953;28;20502;-75
2023/05/21 04:20:15;;;;;;;7.35;5.93;;;15.00;99.90;;;;;;10438100;28;20362;-75
2023/05/21 04:25:37;;;;;;;9.52;5.32;;;15.10;99.90;;;;;;10440850;28;20586;-76
2023/05/21 04:31:00;;;;;;;6.05;4.80;;;15.10;99.90;;;;;;10427562;28;20241;-76
2023/05/21 04:36:21;;;;;;;6.47;4.15;;;15.20;99.90;;;;;;10440548;28;20219;-75
2023/05/21 04:41:43;;;;;;;7.05;4.47;;;15.30;99.90;;;;;;10441322;28;20199;-76
2023/05/21 04:47:04;;;;;;;7.28;4.70;;;15.40;99.90;;;;;;10439730;28;20246;-75
2023/05/21 04:52:44;;;;;;;7.93;5.15;;;15.40;99.90;;;;;;10400741;28;20395;-75
2023/05/21 04:58:06;;;;;;;6.72;4.68;;;15.50;99.90;;;;;;10432284;28;20532;-74
2023/05/21 05:03:29;;;;;;;7.70;5.88;;;15.60;99.90;;;;;;10442594;28;20506;-75
2023/05/21 05:08:52;;;;;;;5.28;4.32;;;15.70;99.90;;;;;;10438647;28;20241;-75
2023/05/21 05:14:14;;;;;;;6.70;4.50;;;15.80;99.90;;;;;;10436106;28;20201;-75
2023/05/21 05:19:36;;;;;;;6.75;3.70;;;15.90;99.90;;;;;;10425644;28;20205;-74
2023/05/21 05:24:57;;;;;;;7.10;5.90;;;16.10;99.90;;;;;;10439487;28;20214;-75
2023/05/21 05:30:19;;;;;;;14.80;10.38;;;16.20;99.80;;;;;;10438118;28;20257;-75
2023/05/21 05:35:41;;;;;;;6.80;4.93;;;16.30;99.00;;;;;;10439179;28;20474;-74
2023/05/21 05:41:02;;;;;;;15.95;7.65;;;16.50;97.30;;;;;;10437854;28;20207;-75
2023/05/21 05:46:23;;;;;;;13.43;6.35;;;16.60;97.00;;;;;;10438819;28;20232;-75
2023/05/21 05:51:45;;;;;;;6.55;3.88;;;16.70;96.30;;;;;;10437268;28;20394;-75
2023/05/21 05:57:06;;;;;;;9.27;4.68;;;16.90;96.40;;;;;;10450728;28;20204;-75
2023/05/21 06:02:28;;;;;;;6.00;4.13;;;17.00;95.00;;;;;;10450168;28;20314;-75
2023/05/21 06:07:49;;;;;;;6.38;3.70;;;17.20;95.20;;;;;;10437976;28;20227;-76
2023/05/21 06:13:12;;;;;;;4.90;3.88;;;17.40;94.50;;;;;;10434345;28;20196;-75
2023/05/21 06:18:33;;;;;;;5.78;4.13;;;17.60;93.80;;;;;;10414916;28;20204;-76
2023/05/21 06:23:54;;;;;;;4.40;3.83;;;17.90;91.70;;;;;;10397104;28;20185;-76
2023/05/21 06:29:15;;;;;;;8.07;4.45;;;18.20;89.40;;;;;;10404147;28;20220;-75
2023/05/21 06:34:39;;;;;;;4.47;3.60;;;18.70;79.50;;;;;;10436276;28;20390;-75
2023/05/21 06:40:01;;;;;;;6.72;3.70;;;19.30;67.10;;;;;;10436591;28;20287;-75
2023/05/21 06:45:24;;;;;;;5.80;2.85;;;19.90;50.00;;;;;;10436577;28;20220;-75
2023/05/21 06:50:50;;;;;;;6.80;3.50;;;20.60;40.80;;;;;;10421511;28;20482;-75
2023/05/21 06:56:12;;;;;;;6.72;3.45;;;21.20;35.70;;;;;;10449906;28;20196;-75
2023/05/21 07:01:35;;;;;;;7.07;4.03;;;21.80;30.50;;;;;;10459086;28;20259;-76
2023/05/21 07:06:57;;;;;;;10.15;3.58;;;22.10;28.00;;;;;;10437925;28;20235;-75
2023/05/21 07:12:18;;;;;;;4.75;2.95;;;22.40;25.60;;;;;;10434722;28;20426;-76
2023/05/21 07:17:40;;;;;;;4.03;2.78;;;23.00;23.90;;;;;;10417715;28;20205;-77
2023/05/21 07:23:02;;;;;;;5.40;3.05;;;23.60;21.40;;;;;;10447001;28;20456;-76
2023/05/21 07:28:23;;;;;;;4.00;3.05;;;24.00;19.70;;;;;;10436326;28;20230;-76
2023/05/21 07:33:44;;;;;;;3.83;2.90;;;24.50;18.60;;;;;;10456197;28;20263;-76
2023/05/21 07:39:06;;;;;;;7.53;3.28;;;24.80;16.60;;;;;;10442646;28;20200;-76
2023/05/21 07:44:30;;;;;;;5.38;3.10;;;25.00;16.00;;;;;;10443570;28;20195;-76
2023/05/21 07:49:52;;;;;;;4.70;2.90;;;24.90;15.60;;;;;;10442313;28;20387;-75
2023/05/21 07:55:13;;;;;;;4.82;3.03;;;25.00;15.10;;;;;;10442742;28;20219;-76
2023/05/21 08:00:43;;;;;;;10.73;3.70;;;25.20;14.80;;;;;;10468719;28;20243;-75
2023/05/21 08:06:05;;;;;;;3.15;2.35;;;25.60;14.30;;;;;;10448289;28;20224;-76
2023/05/21 08:11:27;;;;;;;5.10;2.95;;;26.20;12.70;;;;;;10426329;28;20192;-76
2023/05/21 08:16:48;;;;;;;5.18;2.70;;;26.60;11.60;;;;;;10431424;28;20255;-75
2023/05/21 08:22:10;;;;;;;4.43;2.72;;;27.00;10.40;;;;;;10467821;28;20363;-76
2023/05/21 08:27:36;;;;;;;3.40;2.47;;;27.30;9.70;;;;;;10440918;28;20224;-75
2023/05/21 08:32:58;;;;;;;6.38;3.10;;;;;;;;;;10441523;28;20188;-76
2023/05/21 08:38:22;;;;;;;3.67;2.55;;;;;;;;;;10410450;28;20526;-76
2023/05/21 08:44:10;;;;;;;5.35;2.45;;;;;;;;;;10441206;28;20498;-76
2023/05/21 08:49:34;;;;;;;5.32;2.80;;;;;;;;;;10438552;28;20224;-75
2023/05/21 08:54:56;;;;;;;15.07;6.13;;;;;;;;;;10426750;28;20234;-76
2023/05/21 09:00:19;;;;;;;4.38;2.47;;;28.30;31.60;;;;;;10447635;28;20557;-76
2023/05/21 09:05:42;;;;;;;4.95;2.63;;;28.40;5.00;;;;;;10509607;28;20563;-76
2023/05/21 09:11:03;;;;;;;4.65;2.60;;;28.50;4.90;;;;;;10447311;28;20503;-76
2023/05/21 09:16:30;;;;;;;5.03;2.60;;;28.50;4.90;;;;;;10430664;28;20223;-76
2023/05/21 09:21:52;;;;;;;4.03;2.40;;;28.50;4.80;;;;;;10434123;28;20217;-76
2023/05/21 09:27:17;;;;;;;4.50;2.33;;;28.70;4.10;;;;;;10370981;28;20224;-76
2023/05/21 09:32:40;;;;;;;6.45;2.60;;;28.40;4.00;;;;;;10411518;28;20220;-77
2023/05/21 09:38:07;;;;;;;4.65;2.40;;;28.90;3.60;;;;;;10437085;28;20197;-76
2023/05/21 09:43:29;;;;;;;3.30;2.33;;;29.00;3.10;;;;;;10423908;28;20208;-76
2023/05/21 09:48:51;;;;;;;4.00;2.95;;;29.00;3.30;;;;;;10437322;28;20228;-76
2023/05/21 09:54:12;;;;;;;2.25;2.05;;;29.10;3.10;;;;;;10437640;28;20189;-75
2023/05/21 09:59:38;;;;;;;4.13;2.70;;;29.00;2.20;;;;;;10450965;28;20530;-76
2023/05/21 10:04:59;;;;;;;2.95;2.47;;;29.30;2.10;;;;;;10479912;28;20194;-76
2023/05/21 10:10:21;;;;;;;6.00;2.50;;;29.60;4.30;;;;;;10454734;28;20402;-76
2023/05/21 10:15:46;;;;;;;6.22;2.47;;;29.30;1.90;;;;;;10422402;28;20205;-77
2023/05/21 10:21:08;;;;;;;5.28;2.75;;;29.40;1.30;;;;;;10436372;28;20200;-76
2023/05/21 10:26:29;;;;;;;5.10;2.55;;;29.60;1.20;;;;;;10437721;28;20402;-76
2023/05/21 10:31:51;;;;;;;4.38;2.55;;;29.30;1.00;;;;;;10435750;28;20197;-76
2023/05/21 10:37:14;;;;;;;5.78;2.70;;;29.50;1.00;;;;;;10437618;28;20275;-76
2023/05/21 10:42:36;;;;;;;3.40;2.70;;;29.70;1.30;;;;;;10412501;28;20200;-76
2023/05/21 10:48:03;;;;;;;4.03;2.50;;;29.40;1.00;;;;;;10410896;28;20243;-76
2023/05/21 10:53:40;;;;;;;4.40;2.33;;;29.40;1.00;;;;;;10381130;28;20247;-75
2023/05/21 10:59:20;;;;;;;4.22;2.35;;;29.70;1.00;;;;;;10428007;28;20244;-75
2023/05/21 11:04:47;;;;;;;2.63;2.42;;;29.70;1.00;;;;;;10476586;28;20191;-76
2023/05/21 11:10:34;;;;;;;6.38;2.85;;;29.80;1.00;;;;;;10457066;28;20204;-76
2023/05/21 11:15:58;;;;;;;3.05;2.75;;;29.70;1.00;;;;;;10418702;28;20224;-75
2023/05/21 11:21:51;;;;;;;3.45;2.60;;;30.00;1.20;;;;;;10449535;28;20212;-76
2023/05/21 11:27:12;;;;;;;6.38;3.00;;;29.80;1.00;;;;;;10435081;28;20522;-76
2023/05/21 11:33:00;;;;;;;5.53;2.83;;;29.80;1.10;;;;;;10434333;28;20203;-75
2023/05/21 11:38:20;;;;;;;7.95;3.22;;;29.80;1.00;;;;;;10434173;28;20192;-76
2023/05/21 11:43:43;;;;;;;5.32;2.65;;;29.90;1.00;;;;;;10433940;28;20196;-76
2023/05/21 11:49:04;;;;;;;5.53;3.20;;;29.90;5.50;;;;;;10433940;28;20220;-76
2023/05/21 11:54:26;;;;;;;6.30;3.28;;;29.80;1.00;;;;;;10434707;28;20209;-78
2023/05/21 11:59:50;;;;;;;7.68;3.47;;;29.90;1.00;;;;;;10444855;28;20303;-76
2023/05/21 12:05:11;;;;;;;5.78;2.92;;;29.80;1.00;;;;;;10476060;28;20199;-76
2023/05/21 12:10:32;;;;;;;3.28;2.97;;;29.60;1.00;;;;;;10454680;28;20214;-76
2023/05/21 12:15:53;;;;;;;3.35;3.00;;;29.60;1.00;;;;;;10470768;28;20200;-76
2023/05/21 12:21:15;;;;;;;3.05;2.70;;;29.40;1.00;;;;;;10441815;28;20212;-74
2023/05/21 12:26:36;;;;;;;6.80;2.90;;;29.30;1.00;;;;;;10442549;28;20220;-75
2023/05/21 12:32:01;;;;;;;4.65;3.25;;;29.30;1.00;;;;;;10441527;28;20241;-76
2023/05/21 12:37:24;;;;;;;3.92;3.00;;;29.20;1.00;;;;;;10441120;28;20211;-75
2023/05/21 12:42:45;;;;;;;4.43;2.80;;;29.10;1.00;;;;;;10440630;28;20227;-76
2023/05/21 12:48:06;;;;;;;2.88;2.53;;;28.90;1.00;;;;;;10426001;28;20252;-76
2023/05/21 13:06:41;;;;;;;5.88;2.70;;;29.00;1.00;;;;;;10437326;28;20264;-74
2023/05/21 13:12:03;;;;;;;4.63;2.58;;;28.80;1.00;;;;;;10435942;28;20275;-75
2023/05/21 13:17:26;;;;;;;4.00;2.47;;;28.50;1.60;;;;;;10416443;28;20253;-75
2023/05/21 13:22:49;;;;;;;7.53;2.90;;;28.20;1.60;;;;;;10423747;28;20270;-75
2023/05/21 13:28:13;;;;;;;4.28;2.65;;;28.20;1.40;;;;;;10439237;28;20240;-75
2023/05/21 13:33:35;;;;;;;2.85;2.55;;;28.20;1.20;;;;;;10433154;28;20196;-75
2023/05/21 13:38:56;;;;;;;3.53;2.40;;;27.90;2.20;;;;;;10440692;28;20219;-76
2023/05/21 13:44:17;;;;;;;2.45;2.20;;;28.10;1.60;;;;;;10449481;28;20200;-75
2023/05/21 13:49:39;;;;;;;8.02;2.80;;;28.20;2.40;;;;;;10442243;28;20215;-75
2023/05/21 13:55:00;;;;;;;3.13;2.58;;;27.70;4.20;;;;;;10411599;28;20185;-74
2023/05/21 14:00:21;;;;;;;4.95;2.80;;;27.00;5.10;;;;;;10406498;28;20195;-74
2023/05/21 14:05:42;;;;;;;5.30;2.58;;;26.70;5.80;;;;;;10450609;28;20538;-75
2023/05/21 14:11:03;;;;;;;5.07;3.00;;;26.60;5.70;;;;;;10452813;28;20430;-74
2023/05/21 14:16:26;;;;;;;7.05;2.70;;;26.60;5.40;;;;;;10415269;28;20242;-75
2023/05/21 14:21:47;;;;;;;2.50;2.30;;;26.60;5.30;;;;;;10431739;28;20413;-74
2023/05/21 14:27:09;;;;;;;3.63;2.47;;;26.60;5.70;;;;;;10419054;28;20283;-75
2023/05/21 14:32:30;;;;;;;6.63;2.67;;;26.60;4.90;;;;;;10412880;28;20408;-74
2023/05/21 14:37:53;;;;;;;2.88;2.47;;;26.20;5.10;;;;;;10411701;28;20201;-75
2023/05/21 14:43:13;;;;;;;4.72;3.13;;;26.10;5.80;;;;;;10420498;28;20272;-75
2023/05/21 14:48:34;;;;;;;3.35;2.70;;;26.20;5.70;;;;;;10416732;28;20439;-74
2023/05/21 14:53:56;;;;;;;5.22;2.70;;;26.00;5.50;;;;;;10444329;28;20215;-75
2023/05/21 14:59:17;;;;;;;3.78;2.63;;;25.90;5.90;;;;;;10437230;28;20199;-74
2023/05/21 15:04:38;;;;;;;3.58;2.33;;;25.70;7.70;;;;;;10438893;28;20240;-75
2023/05/21 15:09:59;;;;;;;5.85;2.30;;;25.40;5.90;;;;;;10412338;28;20215;-75
2023/05/21 15:15:21;;;;;;;4.82;3.45;;;25.20;6.00;;;;;;10431846;28;20483;-76
2023/05/21 15:20:41;;;;;;;5.38;2.40;;;25.10;6.00;;;;;;10434691;28;20211;-75
2023/05/21 15:26:02;;;;;;;3.25;2.35;;;25.10;6.00;;;;;;10435101;28;20220;-76
2023/05/21 15:31:24;;;;;;;6.82;3.13;;;24.70;6.10;;;;;;10434778;28;20820;-76
2023/05/21 15:36:45;;;;;;;4.55;2.92;;;24.60;6.40;;;;;;10437074;28;20192;-76
2023/05/21 15:42:06;;;;;;;4.35;2.85;;;24.60;6.50;;;;;;10435055;28;20429;-76
2023/05/21 15:47:27;;;;;;;4.70;1.95;;;24.70;6.40;;;;;;10435452;28;20295;-76
2023/05/21 15:52:48;;;;;;;3.55;2.17;;;24.60;6.30;;;;;;10441625;28;20483;-76
2023/05/21 15:58:10;;;;;;;6.07;2.53;;;24.60;6.80;;;;;;10442360;28;20220;-76
2023/05/21 16:03:31;;;;;;;4.28;3.08;;;24.50;6.70;;;;;;10454329;28;20204;-77
2023/05/21 16:08:52;;;;;;;2.83;2.53;;;24.50;6.30;;;;;;10443247;28;20224;-77
2023/05/21 16:14:15;;;;;;;4.63;2.28;;;24.40;6.40;;;;;;10438796;28;20207;-76
2023/05/21 16:19:36;;;;;;;3.20;2.33;;;24.30;8.30;;;;;;10401902;28;20200;-75
2023/05/21 16:24:59;;;;;;;5.50;2.42;;;24.10;6.30;;;;;;10440468;28;20538;-76
2023/05/21 16:30:20;;;;;;;5.18;1.92;;;24.00;6.70;;;;;;10442922;28;20438;-76
2023/05/21 16:35:41;;;;;;;5.15;2.40;;;23.80;6.60;;;;;;10440468;28;20203;-75
2023/05/21 16:41:02;;;;;;;7.88;2.60;;;23.60;6.70;;;;;;10442445;28;20246;-75
2023/05/21 16:46:23;;;;;;;4.63;2.70;;;23.30;6.80;;;;;;10440417;28;20220;-76
2023/05/21 16:51:44;;;;;;;3.38;2.38;;;23.10;6.60;;;;;;10441379;28;20188;-75
2023/05/21 16:57:05;;;;;;;2.33;1.92;;;23.00;6.80;;;;;;10439910;28;20276;-76
2023/05/21 17:02:26;;;;;;;8.57;2.65;;;22.90;6.30;;;;;;10440374;28;20541;-77
2023/05/21 17:07:47;;;;;;;4.78;2.83;;;22.80;5.90;;;;;;10422490;28;20248;-75
2023/05/21 17:13:08;;;;;;;5.28;3.30;;;22.70;5.90;;;;;;10426930;28;20448;-76
2023/05/21 17:18:38;;;;;;;9.95;4.40;;;22.60;7.90;;;;;;10433527;28;20212;-75
2023/05/21 17:23:59;;;;;;;6.03;3.47;;;22.50;10.70;;;;;;10440076;28;20511;-75
2023/05/21 17:29:20;;;;;;;7.60;3.97;;;22.50;18.30;;;;;;10440721;28;20270;-76
2023/05/21 17:34:41;;;;;;;6.13;3.38;;;22.30;10.00;;;;;;10438681;28;20273;-75
2023/05/21 17:40:04;;;;;;;3.33;2.20;;;22.00;5.90;;;;;;10440294;28;20196;-76
2023/05/21 17:45:25;;;;;;;3.50;2.22;;;21.90;6.40;;;;;;10440183;28;20188;-75
2023/05/21 17:50:46;;;;;;;3.42;2.38;;;21.70;6.50;;;;;;10435266;28;20247;-75
2023/05/21 17:56:09;;;;;;;5.05;3.00;;;21.50;7.00;;;;;;10439620;28;20230;-76
2023/05/21 18:01:30;;;;;;;5.55;4.28;;;21.50;7.60;;;;;;10442707;28;20271;-75
2023/05/21 18:06:51;;;;;;;5.15;3.60;;;21.30;8.00;;;;;;10480187;28;20231;-75
2023/05/21 18:12:12;;;;;;;5.22;2.92;;;21.20;8.50;;;;;;10452259;28;20200;-76
2023/05/21 18:17:33;;;;;;;4.50;2.85;;;21.00;8.30;;;;;;10436264;28;20199;-75
2023/05/21 18:22:54;;;;;;;5.20;3.00;;;20.90;8.50;;;;;;10438094;28;20196;-75
2023/05/21 18:28:15;;;;;;;6.53;3.50;;;20.70;8.90;;;;;;10397078;28;20226;-75
2023/05/21 18:33:37;;;;;;;4.80;2.72;;;20.50;9.20;;;;;;10430159;28;20193;-76
2023/05/21 18:38:58;;;;;;;4.07;2.88;;;20.40;9.40;;;;;;10433633;28;20433;-75
2023/05/21 18:44:19;;;;;;;5.40;2.58;;;20.20;9.70;;;;;;10436396;28;20215;-76
2023/05/21 18:49:39;;;;;;;9.50;3.17;;;20.10;9.80;;;;;;10437355;28;20220;-75
2023/05/21 18:55:00;;;;;;;6.03;2.95;;;19.90;9.70;;;;;;10437144;28;20375;-76
2023/05/21 19:00:22;;;;;;;5.03;2.53;;;19.70;9.70;;;;;;10456644;28;20287;-75
2023/05/21 19:05:43;;;;;;;3.88;2.17;;;19.60;9.80;;;;;;10477180;28;20303;-75
2023/05/21 19:11:04;;;;;;;4.85;2.33;;;19.50;9.90;;;;;;10447601;28;20224;-75
2023/05/21 19:16:27;;;;;;;3.15;2.33;;;19.40;9.80;;;;;;10436120;28;20541;-75
2023/05/21 19:21:48;;;;;;;4.00;2.47;;;19.30;10.00;;;;;;10449450;28;20198;-75
2023/05/21 19:27:08;;;;;;;2.40;2.05;;;19.20;10.30;;;;;;10466870;28;20231;-76
2023/05/21 19:32:30;;;;;;;2.67;2.28;;;19.10;10.20;;;;;;10436423;28;20296;-75
2023/05/21 19:37:53;;;;;;;5.38;3.03;;;19.00;10.30;;;;;;10421005;28;20202;-75
2023/05/21 19:43:14;;;;;;;4.38;3.03;;;18.90;10.20;;;;;;10447680;28;20205;-75
2023/05/21 19:48:35;;;;;;;3.67;2.55;;;18.80;10.40;;;;;;10434032;28;20242;-75
2023/05/21 19:53:56;;;;;;;9.20;2.30;;;18.80;10.50;;;;;;10434927;28;20204;-74
2023/05/21 19:59:17;;;;;;;3.13;2.20;;;18.80;10.60;;;;;;10490954;28;20207;-75
2023/05/21 20:04:38;;;;;;;4.70;2.78;;;18.60;10.80;;;;;;10476257;28;20232;-75
2023/05/21 20:09:59;;;;;;;3.08;2.13;;;18.60;11.20;;;;;;10464345;28;20266;-75
2023/05/21 20:15:20;;;;;;;3.30;2.30;;;18.50;11.60;;;;;;10402207;28;20193;-75
2023/05/21 20:20:42;;;;;;;3.05;2.28;;;18.40;11.90;;;;;;10450672;28;20205;-75
2023/05/21 20:26:03;;;;;;;2.63;2.30;;;18.20;12.20;;;;;;10434408;28;20195;-76
2023/05/21 20:31:26;;;;;;;3.90;2.30;;;18.20;12.60;;;;;;10461168;28;20236;-75
2023/05/21 20:36:47;;;;;;;3.35;2.10;;;18.10;13.00;;;;;;10437147;28;20483;-74
2023/05/21 20:42:09;;;;;;;3.13;1.90;;;18.00;13.20;;;;;;10439108;28;20223;-75
2023/05/21 20:47:30;;;;;;;4.10;2.20;;;17.80;13.60;;;;;;10434312;28;20219;-76
2023/05/21 20:53:17;;;;;;;6.45;2.20;;;17.80;13.90;;;;;;10401244;28;20217;-75
2023/05/21 20:58:38;;;;;;;4.75;2.33;;;17.70;14.30;;;;;;10407398;28;20224;-75
2023/05/21 21:03:59;;;;;;;3.80;2.03;;;17.50;14.60;;;;;;10400542;28;20603;-74
2023/05/21 21:09:20;;;;;;;2.55;2.03;;;17.40;15.00;;;;;;10405706;28;20274;-75
2023/05/21 21:14:41;;;;;;;2.63;2.10;;;17.40;15.30;;;;;;10432921;28;20276;-75
2023/05/21 21:20:04;;;;;;;3.30;2.33;;;17.30;15.60;;;;;;10450762;28;20491;-75
2023/05/21 21:25:25;;;;;;;4.25;2.42;;;17.20;15.90;;;;;;10440388;28;20191;-75
2023/05/21 21:30:46;;;;;;;3.20;2.15;;;17.10;16.00;;;;;;10471632;28;20538;-75
2023/05/21 21:36:11;;;;;;;3.42;1.88;;;17.00;16.30;;;;;;10440284;28;20195;-76
2023/05/21 21:41:32;;;;;;;1.90;1.73;;;16.90;16.50;;;;;;10439843;28;20193;-74
2023/05/21 21:46:53;;;;;;;2.92;2.15;;;16.90;17.00;;;;;;10434726;28;20228;-74
2023/05/21 21:52:15;;;;;;;2.90;1.90;;;16.80;17.10;;;;;;10438692;28;20192;-75
2023/05/21 21:57:37;;;;;;;2.83;2.05;;;16.80;17.20;;;;;;10438630;28;20204;-75
2023/05/21 22:02:58;;;;;;;2.72;1.95;;;16.70;17.70;;;;;;10398319;28;20193;-75
2023/05/21 22:08:20;;;;;;;2.22;2.00;;;16.60;17.80;;;;;;10420161;28;20269;-75
2023/05/21 22:13:41;;;;;;;3.00;2.05;;;16.60;18.20;;;;;;10437576;28;20184;-75
2023/05/21 22:19:02;;;;;;;3.08;2.20;;;16.50;18.60;;;;;;10406791;28;20283;-75
2023/05/21 22:24:24;;;;;;;4.50;2.00;;;16.40;18.70;;;;;;10438122;28;20537;-75
2023/05/21 22:29:50;;;;;;;4.47;2.08;;;16.30;18.80;;;;;;10435946;28;20238;-75
2023/05/21 22:35:12;;;;;;;2.70;2.15;;;16.30;19.20;;;;;;10437731;28;20191;-76
2023/05/21 22:40:33;;;;;;;7.22;2.30;;;16.20;19.20;;;;;;10434100;28;20195;-75
2023/05/21 22:45:54;;;;;;;2.60;2.15;;;16.20;19.30;;;;;;10458367;28;20203;-75
2023/05/21 22:51:15;;;;;;;2.88;2.03;;;16.10;19.70;;;;;;10437337;28;20222;-75
2023/05/21 22:56:37;;;;;;;2.75;2.20;;;16.10;19.90;;;;;;10440706;28;20207;-76
2023/05/21 23:01:58;;;;;;;2.20;1.90;;;16.10;20.30;;;;;;10436517;28;20228;-75
2023/05/21 23:07:19;;;;;;;2.40;1.98;;;16.00;20.60;;;;;;10436537;28;20319;-76
2023/05/21 23:12:40;;;;;;;2.67;2.17;;;15.90;20.80;;;;;;10434051;28;20212;-75
2023/05/21 23:18:02;;;;;;;3.05;2.05;;;16.00;21.10;;;;;;10425876;28;20230;-76
2023/05/21 23:23:23;;;;;;;2.33;2.00;;;15.90;21.50;;;;;;10436350;28;20218;-75
2023/05/21 23:28:44;;;;;;;4.65;1.95;;;15.80;21.90;;;;;;10435498;28;20228;-75
2023/05/21 23:34:05;;;;;;;7.22;2.33;;;15.80;22.10;;;;;;10436274;28;20236;-75
2023/05/21 23:39:27;;;;;;;3.38;2.22;;;15.70;99.90;;;;;;10436231;28;20196;-76
2023/05/21 23:44:48;;;;;;;2.75;2.42;;;15.70;99.90;;;;;;10435780;28;20204;-75
2023/05/21 23:50:10;;;;;;;3.65;2.10;;;15.70;99.90;;;;;;10435924;28;20218;-75
2023/05/21 23:55:31;;;;;;;4.03;2.50;;;15.60;99.90;;;;;;10436062;28;20498;-74
